Time;durP1;ratioP1;P1;durP2;ratioP2;P2;SDS_P1;SDS_P2;PMS_P1;PMS_P2;Temp;Humidity;BMP_temperature;BMP_pressure;BME280_temperature;BME280_humidity;BME280_pressure;Samples;Min_cycle;Max_cycle;Signal;HPM_P1;HPM_P2
2024/01/11 00:00:30;;;;;;;42.80;18.45;;;;;;;-6.54;78.54;102708.28;6271913;22;20019;-69
2024/01/11 00:02:57;;;;;;;46.78;19.98;;;;;;;-6.49;79.19;102713.59;6272429;22;20020;-69
2024/01/11 00:05:24;;;;;;;46.05;18.77;;;;;;;-6.46;78.69;102716.31;6271773;22;20427;-70
2024/01/11 00:07:51;;;;;;;48.28;20.48;;;;;;;-6.63;79.34;102712.53;6270351;22;20019;-70
2024/01/11 00:10:18;;;;;;;45.15;18.80;;;;;;;-6.54;79.28;102710.91;6272677;22;20358;-68
2024/01/11 00:12:46;;;;;;;49.67;20.98;;;;;;;-6.48;78.48;102712.78;6272120;22;20019;-69
2024/01/11 00:15:13;;;;;;;49.65;20.40;;;;;;;-6.33;78.52;102712.06;6271704;22;20152;-69
2024/01/11 00:17:40;;;;;;;54.40;22.30;;;;;;;-6.37;78.28;102702.34;6271077;22;20023;-72
2024/01/11 00:20:07;;;;;;;49.88;20.00;;;;;;;-6.54;78.85;102704.75;6271875;22;20055;-70
2024/01/11 00:22:34;;;;;;;52.63;19.83;;;;;;;-6.47;78.52;102711.91;6270904;22;20095;-69
2024/01/11 00:25:01;;;;;;;44.10;19.38;;;;;;;-6.45;78.56;102720.72;6270782;22;20023;-68
2024/01/11 00:27:28;;;;;;;47.95;18.45;;;;;;;-6.45;78.66;102707.53;6271401;22;20077;-69
2024/01/11 00:29:55;;;;;;;40.50;17.33;;;;;;;-6.70;79.60;102708.03;6271036;22;20508;-69
2024/01/11 00:32:22;;;;;;;38.58;15.43;;;;;;;-6.70;79.52;102702.75;6270112;22;20058;-70
2024/01/11 00:34:48;;;;;;;36.55;14.88;;;;;;;-6.78;80.39;102692.97;6273231;22;20091;-69
2024/01/11 00:37:16;;;;;;;33.10;14.18;;;;;;;-6.74;79.93;102700.06;6272253;22;20038;-70
2024/01/11 00:39:43;;;;;;;31.52;13.82;;;;;;;-6.92;81.07;102676.09;6245248;22;20063;-68
2024/01/11 00:42:10;;;;;;;33.90;14.23;;;;;;;-7.02;81.35;102679.47;6272378;22;20027;-68
2024/01/11 00:44:36;;;;;;;33.90;13.52;;;;;;;-6.81;81.42;102687.66;6271695;22;20119;-69
2024/01/11 00:47:03;;;;;;;26.20;11.82;;;;;;;-6.99;82.14;102674.22;6272424;22;20362;-69
2024/01/11 00:49:30;;;;;;;29.17;12.98;;;;;;;-7.01;82.17;102680.34;6272420;22;20023;-71
2024/01/11 00:51:56;;;;;;;32.58;13.90;;;;;;;-6.88;81.34;102666.44;6271694;22;20046;-69
2024/01/11 00:54:24;;;;;;;40.65;14.82;;;;;;;-7.13;82.03;102652.94;6270584;22;20027;-70
2024/01/11 00:56:51;;;;;;;30.63;12.70;;;;;;;-6.69;81.62;102651.75;6271838;22;20329;-68
2024/01/11 00:59:18;;;;;;;32.90;13.07;;;;;;;-7.08;82.31;102653.88;6272128;22;20027;-68
2024/01/11 01:01:48;;;;;;;25.23;11.93;;;;;;;-7.27;83.02;102658.81;6273218;22;20022;-69
2024/01/11 01:04:15;;;;;;;31.03;12.80;;;;;;;-7.38;83.67;102654.28;6272883;22;20070;-68
2024/01/11 01:06:42;;;;;;;31.05;12.55;;;;;;;-7.39;84.36;102647.22;6272366;22;20307;-68
2024/01/11 01:09:09;;;;;;;27.50;12.20;;;;;;;-7.37;83.21;102648.13;6272487;22;20098;-68
2024/01/11 01:11:36;;;;;;;27.33;12.30;;;;;;;-7.44;83.91;102650.63;6272677;22;20347;-69
2024/01/11 01:14:02;;;;;;;28.67;13.27;;;;;;;-7.48;84.05;102654.97;6272689;22;20107;-68
2024/01/11 01:16:29;;;;;;;31.08;13.40;;;;;;;-7.48;84.43;102633.91;6246133;22;20405;-69
2024/01/11 01:18:55;;;;;;;36.72;14.88;;;;;;;-7.02;83.20;102610.88;6272305;22;20454;-68
2024/01/11 01:21:22;;;;;;;36.65;15.00;;;;;;;-7.16;82.13;102626.50;6272446;22;20026;-68
2024/01/11 01:23:49;;;;;;;43.63;16.55;;;;;;;-7.39;82.65;102635.81;6272517;22;20024;-68
2024/01/11 01:26:15;;;;;;;48.72;19.35;;;;;;;-7.30;83.08;102629.78;6272082;22;20458;-68
2024/01/11 01:28:42;;;;;;;50.60;20.30;;;;;;;-7.45;83.51;102639.22;6271516;22;20023;-69
2024/01/11 01:31:10;;;;;;;46.65;20.20;;;;;;;-7.24;82.32;102633.38;6272156;22;20469;-69
2024/01/11 01:33:38;;;;;;;48.47;19.15;;;;;;;-7.53;84.05;102635.56;6272030;22;20023;-69
2024/01/11 01:36:08;;;;;;;41.38;17.13;;;;;;;-7.56;84.11;102638.16;6273210;22;20039;-69
2024/01/11 01:38:36;;;;;;;38.28;14.90;;;;;;;-7.68;85.23;102651.13;6274076;22;20304;-69
2024/01/11 01:41:03;;;;;;;32.25;14.00;;;;;;;-7.58;84.77;102637.25;6274678;22;20027;-69
2024/01/11 01:43:29;;;;;;;36.08;14.30;;;;;;;-7.45;84.50;102668.19;6275041;22;20022;-69
2024/01/11 01:45:56;;;;;;;34.00;13.45;;;;;;;-7.47;84.41;102662.03;6275552;22;20073;-70
2024/01/11 01:48:23;;;;;;;38.20;14.65;;;;;;;-7.69;85.49;102644.97;6274759;22;20093;-69
2024/01/11 01:50:50;;;;;;;39.88;16.55;;;;;;;-7.33;83.98;102631.53;6274529;22;20445;-70
2024/01/11 01:53:22;;;;;;;33.83;14.07;;;;;;;-7.61;84.95;102635.44;6274307;22;20093;-70
2024/01/11 01:55:51;;;;;;;37.80;16.65;;;;;;;-7.49;84.92;102629.50;6274216;22;20447;-69
2024/01/11 01:58:20;;;;;;;39.83;15.57;;;;;;;-7.65;85.25;102630.97;6274000;22;20466;-69
2024/01/11 02:00:49;;;;;;;39.85;15.73;;;;;;;-7.73;85.21;102627.31;6274439;22;20020;-69
2024/01/11 02:03:16;;;;;;;42.53;16.83;;;;;;;-7.70;85.22;102634.38;6274218;22;20095;-69
2024/01/11 02:09:37;;;;;;;32.58;13.43;;;;;;;-7.70;85.67;102651.09;6271671;22;20019;-69
2024/01/11 02:12:04;;;;;;;30.15;13.63;;;;;;;-7.65;85.90;102651.16;6274507;22;20020;-70
2024/01/11 02:14:32;;;;;;;35.83;13.68;;;;;;;-7.64;85.96;102645.91;6272923;22;20020;-70
2024/01/11 02:16:58;;;;;;;35.53;14.07;;;;;;;-7.40;85.28;102661.28;6272389;22;20027;-70
2024/01/11 02:19:26;;;;;;;37.60;13.80;;;;;;;-7.23;84.97;102677.38;6273011;22;20323;-70
2024/01/11 02:21:54;;;;;;;34.78;14.70;;;;;;;-7.24;84.75;102677.31;6274252;22;20020;-69
2024/01/11 02:24:21;;;;;;;31.25;13.57;;;;;;;-7.38;85.89;102666.56;6272021;22;20016;-69
2024/01/11 02:27:01;;;;;;;34.15;13.05;;;;;;;-7.38;86.33;102670.09;6273305;22;20121;-69
2024/01/11 02:29:29;;;;;;;31.23;13.23;;;;;;;-7.42;86.77;102672.63;6272795;22;20020;-69
2024/01/11 02:31:57;;;;;;;26.30;11.40;;;;;;;-7.14;86.00;102669.63;6272330;22;20093;-69
2024/01/11 02:34:24;;;;;;;30.35;11.73;;;;;;;-6.94;85.12;102675.19;6273141;22;20030;-69
2024/01/11 02:36:51;;;;;;;21.88;9.80;;;;;;;-6.93;85.12;102671.69;6272775;22;20023;-69
2024/01/11 02:39:19;;;;;;;22.73;9.27;;;;;;;-6.95;84.99;102680.44;6273197;22;20038;-69
2024/01/11 02:41:47;;;;;;;21.35;8.80;;;;;;;-7.01;84.83;102681.22;6243199;23;20423;-69
2024/01/11 02:44:14;;;;;;;20.80;8.68;;;;;;;-7.15;85.60;102674.84;6216318;23;20020;-69
2024/01/11 02:46:41;;;;;;;18.83;8.40;;;;;;;-7.25;85.46;102671.16;6214211;23;20027;-69
2024/01/11 02:49:07;;;;;;;20.35;7.57;;;;;;;-7.18;84.98;102666.88;6241879;23;20400;-69
2024/01/11 02:51:35;;;;;;;22.77;8.57;;;;;;;-7.15;85.75;102675.72;6243355;23;20051;-69
2024/01/11 02:54:02;;;;;;;17.25;7.90;;;;;;;-7.28;85.26;102659.69;6242371;23;20028;-69
2024/01/11 02:56:29;;;;;;;20.98;7.85;;;;;;;-7.35;85.93;102643.75;6242814;23;20359;-69
2024/01/11 02:58:56;;;;;;;19.08;8.35;;;;;;;-7.48;85.72;102638.28;6242945;23;20103;-69
2024/01/11 03:01:23;;;;;;;25.20;9.30;;;;;;;-7.26;85.58;102626.31;6242297;23;20020;-69
2024/01/11 03:03:49;;;;;;;29.60;11.98;;;;;;;-7.38;85.51;102630.56;6241020;23;20075;-69
2024/01/11 03:06:21;;;;;;;33.53;12.20;;;;;;;-7.46;86.33;102644.47;6241917;23;20023;-69
2024/01/11 03:08:49;;;;;;;29.95;11.68;;;;;;;-7.33;86.24;102641.16;6241165;23;20422;-69
2024/01/11 03:11:18;;;;;;;30.20;12.90;;;;;;;-7.15;85.20;102645.84;6240475;23;20012;-69
2024/01/11 03:13:45;;;;;;;32.25;13.32;;;;;;;-7.35;85.54;102658.69;6241741;23;20028;-69
2024/01/11 03:16:12;;;;;;;29.35;11.23;;;;;;;-7.39;85.84;102667.44;6238578;23;20024;-69
2024/01/11 03:18:39;;;;;;;23.55;9.25;;;;;;;-7.26;85.36;102660.59;6240176;23;20082;-69
2024/01/11 03:21:05;;;;;;;23.10;10.13;;;;;;;-7.42;85.76;102668.28;6240740;23;20020;-69
2024/01/11 03:23:32;;;;;;;28.02;11.20;;;;;;;-7.50;86.18;102661.97;6241105;23;20027;-69
2024/01/11 03:25:58;;;;;;;22.35;9.68;;;;;;;-7.39;85.61;102643.72;6228405;23;20079;-69
2024/01/11 03:28:25;;;;;;;23.80;10.25;;;;;;;-7.28;84.66;102649.16;6241538;23;20027;-69
2024/01/11 03:30:52;;;;;;;25.10;10.93;;;;;;;-7.60;85.70;102644.25;6241344;23;20099;-69
2024/01/11 03:33:19;;;;;;;28.55;10.43;;;;;;;-7.53;85.76;102648.72;6241673;23;20020;-69
2024/01/11 03:35:46;;;;;;;24.65;10.65;;;;;;;-7.52;85.46;102650.50;6242704;23;20473;-69
2024/01/11 03:38:13;;;;;;;31.40;11.45;;;;;;;-7.43;85.50;102644.50;6242203;23;20128;-69
2024/01/11 03:40:41;;;;;;;31.25;11.32;;;;;;;-7.62;86.06;102638.03;6258492;22;20043;-70
2024/01/11 03:43:08;;;;;;;26.27;11.63;;;;;;;-7.64;86.86;102635.38;6272892;22;20361;-69
2024/01/11 03:45:35;;;;;;;22.45;10.02;;;;;;;-7.55;87.01;102629.38;6272834;22;20035;-70
2024/01/11 03:48:01;;;;;;;32.15;11.65;;;;;;;-7.67;86.87;102609.00;6272320;22;20046;-70
2024/01/11 03:50:28;;;;;;;29.17;11.13;;;;;;;-7.59;87.33;102617.03;6273379;22;20031;-70
2024/01/11 03:52:54;;;;;;;26.15;10.40;;;;;;;-7.48;86.59;102599.66;6272425;22;20083;-70
2024/01/11 03:55:21;;;;;;;28.25;10.70;;;;;;;-7.52;87.90;102591.66;6273319;22;20040;-69
2024/01/11 03:57:48;;;;;;;30.02;11.77;;;;;;;-7.53;88.31;102590.75;6273810;22;20065;-70
2024/01/11 04:00:15;;;;;;;23.80;10.35;;;;;;;-7.46;87.88;102595.28;6274537;22;20027;-70
2024/01/11 04:02:41;;;;;;;25.20;9.27;;;;;;;-7.40;88.09;102598.03;6273380;22;20019;-70
2024/01/11 04:05:08;;;;;;;25.50;10.32;;;;;;;-7.47;87.91;102598.78;6273604;22;20362;-69
2024/01/11 04:07:35;;;;;;;28.70;10.98;;;;;;;-7.40;87.93;102608.56;6272403;22;20023;-70
2024/01/11 04:10:02;;;;;;;24.10;9.77;;;;;;;-7.32;88.32;102603.41;6272724;22;20069;-69
2024/01/11 04:12:29;;;;;;;24.50;10.55;;;;;;;-7.40;89.24;102600.66;6272537;22;20024;-69
2024/01/11 04:14:55;;;;;;;29.83;11.65;;;;;;;-7.34;89.00;102607.75;6272842;22;20023;-69
2024/01/11 04:17:22;;;;;;;25.67;9.85;;;;;;;-7.05;88.75;102600.28;6246404;22;20450;-70
2024/01/11 04:19:49;;;;;;;26.77;9.63;;;;;;;-7.17;88.69;102603.63;6272673;22;20039;-69
2024/01/11 04:22:15;;;;;;;26.80;9.75;;;;;;;-6.89;88.42;102596.97;6273428;22;20442;-70
2024/01/11 04:24:43;;;;;;;23.48;9.15;;;;;;;-6.94;88.72;102587.28;6273033;22;20019;-69
2024/01/11 04:27:09;;;;;;;29.85;11.02;;;;;;;-6.67;88.19;102581.44;6272797;22;20477;-70
2024/01/11 04:29:36;;;;;;;31.83;10.65;;;;;;;-6.78;88.43;102595.34;6246249;22;20020;-69
2024/01/11 04:32:03;;;;;;;40.55;10.18;;;;;;;-6.94;89.14;102609.25;6272973;22;20023;-70
2024/01/11 04:34:30;;;;;;;28.27;10.65;;;;;;;-6.90;89.70;102612.81;6273261;22;20023;-70
2024/01/11 04:36:56;;;;;;;27.20;10.20;;;;;;;-6.93;90.16;102603.09;6246803;22;20024;-70
2024/01/11 04:39:23;;;;;;;29.98;9.57;;;;;;;-6.77;90.43;102591.88;6272989;22;20077;-69
2024/01/11 04:41:49;;;;;;;29.73;10.43;;;;;;;-6.91;90.64;102600.50;6273600;22;20027;-69
2024/01/11 04:44:16;;;;;;;28.33;10.40;;;;;;;-6.89;91.22;102599.59;6274011;22;20523;-70
2024/01/11 04:46:43;;;;;;;27.48;10.73;;;;;;;-6.92;91.80;102599.59;6273822;22;20413;-69
2024/01/11 04:49:10;;;;;;;37.28;12.18;;;;;;;-6.95;92.28;102615.41;6247337;22;20016;-70
2024/01/11 04:51:36;;;;;;;33.53;10.75;;;;;;;-6.74;91.88;102602.47;6273089;22;20027;-70
2024/01/11 04:54:03;;;;;;;31.80;10.85;;;;;;;-6.79;91.99;102598.84;6272838;22;20085;-69
2024/01/11 04:56:29;;;;;;;36.25;11.23;;;;;;;-6.53;91.74;102569.28;6272895;22;20024;-69
2024/01/11 04:58:56;;;;;;;41.22;12.30;;;;;;;-6.78;92.23;102570.72;6272451;22;20476;-70
2024/01/11 05:01:23;;;;;;;35.58;11.27;;;;;;;-6.75;91.78;102589.25;6271962;22;20042;-70
2024/01/11 05:03:49;;;;;;;34.55;12.15;;;;;;;-6.70;92.55;102591.94;6271469;22;20354;-70
2024/01/11 05:06:21;;;;;;;27.55;11.10;;;;;;;-6.41;92.04;102556.22;6272467;22;20462;-70
2024/01/11 05:08:51;;;;;;;37.25;12.18;;;;;;;-6.50;91.67;102558.75;6271155;22;20482;-70
2024/01/11 05:11:19;;;;;;;36.30;11.07;;;;;;;-6.35;92.05;102553.66;6272132;22;20129;-70
2024/01/11 05:13:47;;;;;;;35.92;11.75;;;;;;;-6.26;90.87;102516.78;6246532;22;20046;-69
2024/01/11 05:16:26;;;;;;;34.97;11.18;;;;;;;-6.11;90.19;102550.38;6271939;22;20020;-70
2024/01/11 05:18:54;;;;;;;34.88;11.63;;;;;;;-6.20;90.62;102572.31;6244229;22;20489;-70
2024/01/11 05:21:23;;;;;;;32.28;11.18;;;;;;;-6.36;91.56;102580.03;6271521;22;20039;-70
2024/01/11 05:23:50;;;;;;;38.97;12.50;;;;;;;-6.38;91.88;102585.31;6271655;22;20393;-70
2024/01/11 05:26:18;;;;;;;36.85;12.15;;;;;;;-6.46;92.55;102560.56;6272344;22;20020;-70
2024/01/11 05:28:45;;;;;;;34.03;11.70;;;;;;;-6.13;91.32;102559.16;6271313;22;20125;-70
2024/01/11 05:31:17;;;;;;;39.33;12.43;;;;;;;-6.34;92.02;102565.97;6271959;22;20081;-70
2024/01/11 05:33:45;;;;;;;33.15;11.95;;;;;;;-6.39;92.49;102569.47;6267610;22;20073;-70
2024/01/11 05:36:12;;;;;;;35.58;11.98;;;;;;;-6.32;92.52;102579.19;6272382;22;20098;-69
2024/01/11 05:38:40;;;;;;;43.80;14.02;;;;;;;-6.29;92.37;102576.59;6272206;22;20028;-70
2024/01/11 05:41:08;;;;;;;37.95;12.45;;;;;;;-6.18;92.33;102573.19;6272756;22;20035;-69
2024/01/11 05:43:35;;;;;;;34.92;12.80;;;;;;;-5.82;91.66;102571.78;6246367;22;20024;-70
2024/01/11 05:46:02;;;;;;;35.42;12.15;;;;;;;-6.01;91.37;102572.50;6273355;22;20102;-70
2024/01/11 05:48:29;;;;;;;44.33;13.57;;;;;;;-6.11;91.96;102576.81;6273497;22;20091;-70
2024/01/11 05:50:59;;;;;;;40.95;13.73;;;;;;;-5.89;92.29;102557.63;6271315;22;20451;-69
2024/01/11 05:53:27;;;;;;;37.38;13.15;;;;;;;-5.94;92.26;102556.69;6271789;22;20074;-70
2024/01/11 05:55:54;;;;;;;46.58;13.80;;;;;;;-5.82;91.78;102552.41;6270520;22;20024;-70
2024/01/11 05:58:21;;;;;;;56.95;14.68;;;;;;;-5.80;91.29;102551.53;6271046;22;20019;-70
2024/01/11 06:00:47;;;;;;;36.50;12.30;;;;;;;-5.88;92.04;102542.66;6272796;22;20023;-70
2024/01/11 06:03:15;;;;;;;42.13;13.35;;;;;;;-5.87;92.08;102552.34;6271839;22;20024;-70
2024/01/11 06:05:42;;;;;;;47.92;13.90;;;;;;;-5.94;92.97;102553.16;6271978;22;20528;-70
2024/01/11 06:08:09;;;;;;;45.80;14.40;;;;;;;-5.95;92.59;102554.03;6272094;22;20074;-70
2024/01/11 06:10:36;;;;;;;50.15;15.05;;;;;;;-5.94;93.11;102572.53;6245878;22;20050;-70
2024/01/11 06:13:02;;;;;;;46.47;14.40;;;;;;;-5.85;92.74;102573.50;6272673;22;20078;-70
2024/01/11 06:15:29;;;;;;;47.65;14.57;;;;;;;-5.83;92.79;102569.16;6246357;22;20024;-70
2024/01/11 06:17:55;;;;;;;43.70;14.18;;;;;;;-5.87;92.99;102574.38;6273144;22;20122;-70
2024/01/11 06:20:22;;;;;;;45.22;13.50;;;;;;;-5.69;92.56;102565.72;6272880;22;20046;-70
2024/01/11 06:22:49;;;;;;;43.95;13.02;;;;;;;-5.45;92.31;102535.09;6274467;22;20023;-70
2024/01/11 06:25:16;;;;;;;44.20;14.40;;;;;;;-5.52;92.07;102539.44;6275626;22;20018;-70
2024/01/11 06:27:43;;;;;;;45.33;14.15;;;;;;;-5.56;92.05;102535.00;6274413;22;20023;-70
2024/01/11 06:30:10;;;;;;;53.83;15.55;;;;;;;-5.40;92.02;102539.50;6275301;22;20034;-70
2024/01/11 06:32:37;;;;;;;48.15;15.00;;;;;;;-5.41;91.68;102539.50;6273166;22;20366;-69
2024/01/11 06:35:05;;;;;;;56.53;15.90;;;;;;;-5.65;92.55;102554.31;6274696;22;20462;-71
2024/01/11 06:37:31;;;;;;;49.63;15.10;;;;;;;-5.54;92.85;102557.06;6273628;22;20027;-70
2024/01/11 06:39:58;;;;;;;46.90;14.80;;;;;;;-5.54;92.71;102550.88;6260718;22;20458;-70
2024/01/11 06:42:25;;;;;;;52.03;15.05;;;;;;;-5.57;92.79;102551.72;6273331;22;20074;-70
2024/01/11 06:44:52;;;;;;;45.30;16.20;;;;;;;-5.60;92.75;102531.44;6273710;22;20024;-70
2024/01/11 06:47:18;;;;;;;54.50;15.82;;;;;;;-5.55;93.08;102543.81;6272644;22;20019;-71
2024/01/11 06:49:45;;;;;;;62.08;16.38;;;;;;;-5.50;92.65;102545.59;6274161;22;20095;-71
2024/01/11 06:52:12;;;;;;;52.72;16.25;;;;;;;-5.43;92.51;102538.63;6272334;22;20134;-71
2024/01/11 06:54:39;;;;;;;48.95;15.07;;;;;;;-5.43;92.38;102531.56;6274271;22;20030;-70
2024/01/11 06:57:06;;;;;;;53.35;17.58;;;;;;;-5.42;92.10;102543.03;6273771;22;20028;-71
2024/01/11 06:59:33;;;;;;;53.28;16.40;;;;;;;-5.43;92.55;102538.63;6272956;22;20433;-71
2024/01/11 07:01:59;;;;;;;52.42;16.13;;;;;;;-5.33;92.21;102522.81;6273978;22;20027;-70
2024/01/11 07:04:26;;;;;;;49.53;17.05;;;;;;;-5.40;92.12;102528.94;6273981;22;20040;-71
2024/01/11 07:06:52;;;;;;;52.25;16.67;;;;;;;-5.18;91.92;102529.97;6273505;22;20024;-71
2024/01/11 07:09:20;;;;;;;50.25;16.13;;;;;;;-5.17;91.32;102515.88;6273857;22;20149;-70
2024/01/11 07:11:46;;;;;;;50.47;16.02;;;;;;;-5.19;91.42;102525.53;6274046;22;20038;-71
2024/01/11 07:14:13;;;;;;;53.55;16.90;;;;;;;-5.22;91.60;102520.22;6272777;22;20024;-71
2024/01/11 07:16:40;;;;;;;49.63;16.67;;;;;;;-5.14;91.41;102517.63;6273199;22;20027;-71
2024/01/11 07:19:06;;;;;;;54.35;17.48;;;;;;;-5.27;91.68;102526.38;6272405;22;20023;-71
2024/01/11 07:21:33;;;;;;;53.17;16.83;;;;;;;-5.20;91.90;102530.81;6271847;22;20494;-69
2024/01/11 07:23:59;;;;;;;54.13;18.10;;;;;;;-5.13;91.48;102512.34;6271775;22;20047;-70
2024/01/11 07:26:27;;;;;;;59.63;18.52;;;;;;;-5.17;92.14;102525.56;6272680;22;20023;-71
2024/01/11 07:28:57;;;;;;;55.97;18.50;;;;;;;-5.08;91.79;102523.84;6272423;22;20107;-70
2024/01/11 07:31:24;;;;;;;63.40;19.00;;;;;;;-5.16;91.51;102525.56;6271695;22;20019;-70
2024/01/11 07:33:50;;;;;;;57.40;19.40;;;;;;;-4.80;91.45;102508.09;6272832;22;20478;-70
2024/01/11 07:36:17;;;;;;;66.35;20.48;;;;;;;-4.87;90.89;102508.94;6273434;22;20081;-70
2024/01/11 07:38:44;;;;;;;63.58;19.85;;;;;;;-4.84;90.86;102511.59;6270640;22;20451;-70
2024/01/11 07:41:11;;;;;;;64.60;19.15;;;;;;;-4.94;91.14;102523.03;6271633;22;20028;-70
2024/01/11 07:43:38;;;;;;;64.07;18.98;;;;;;;-4.89;91.39;102531.88;6271606;22;20425;-70
2024/01/11 07:46:19;;;;;;;39.05;14.00;;;;;;;-4.91;91.66;102534.53;6267830;22;20082;-70
2024/01/11 07:48:58;;;;;;;71.63;20.40;;;;;;;-4.84;91.26;102524.81;6268511;22;20027;-70
2024/01/11 07:51:26;;;;;;;72.65;20.42;;;;;;;-4.89;91.76;102537.16;6268969;22;20035;-70
2024/01/11 07:53:54;;;;;;;58.53;19.48;;;;;;;-4.84;91.48;102535.41;6268963;22;20494;-71
2024/01/11 07:56:20;;;;;;;59.85;20.23;;;;;;;-4.87;91.56;102536.28;6270221;22;20395;-70
2024/01/11 07:58:47;;;;;;;67.30;20.77;;;;;;;-4.71;91.43;102529.31;6266617;22;20075;-70
2024/01/11 08:01:16;;;;;;;70.63;21.15;;;;;;;-4.64;91.36;102519.59;6267330;22;20019;-70
2024/01/11 08:03:45;;;;;;;66.22;20.90;;;;;;;-4.59;91.09;102509.94;6271164;22;20074;-70
2024/01/11 08:06:11;;;;;;;58.40;19.92;;;;;;;-4.41;90.69;102498.50;6266206;22;20419;-70
2024/01/11 08:08:39;;;;;;;55.45;19.65;;;;;;;-4.49;90.71;102504.66;6267728;22;20031;-70
2024/01/11 08:11:10;;;;;;;58.75;21.13;;;;;;;-4.58;91.02;102506.41;6267307;22;20028;-70
2024/01/11 08:13:37;;;;;;;66.38;20.02;;;;;;;-4.67;91.46;102528.44;6267196;22;20397;-70
2024/01/11 08:16:07;;;;;;;58.88;19.98;;;;;;;-4.58;91.79;102517.88;6267822;22;20025;-70
2024/01/11 08:18:33;;;;;;;58.42;19.95;;;;;;;-4.57;91.20;102509.03;6267725;22;20371;-70
2024/01/11 08:21:00;;;;;;;57.22;19.15;;;;;;;-4.50;91.85;102513.47;6268590;22;20056;-68
2024/01/11 08:23:27;;;;;;;61.75;20.10;;;;;;;-4.53;91.53;102513.50;6268603;22;20405;-68
2024/01/11 08:25:54;;;;;;;59.03;20.92;;;;;;;-4.53;91.82;102510.84;6268155;22;20472;-68
2024/01/11 08:28:21;;;;;;;60.92;21.48;;;;;;;-4.54;91.43;102509.03;6269342;22;20331;-69
2024/01/11 08:30:47;;;;;;;51.70;18.63;;;;;;;-4.43;91.73;102516.16;6270808;22;20011;-68
2024/01/11 08:33:14;;;;;;;61.38;20.60;;;;;;;-4.45;91.97;102513.47;6269824;22;20119;-68
2024/01/11 08:35:41;;;;;;;62.75;22.48;;;;;;;-4.33;91.34;102512.66;6269340;22;20022;-68
2024/01/11 08:38:08;;;;;;;63.33;21.30;;;;;;;-4.39;91.60;102517.91;6269074;22;20081;-68
2024/01/11 08:40:35;;;;;;;63.25;21.95;;;;;;;-4.36;91.76;102502.03;6268193;22;20299;-68
2024/01/11 08:43:03;;;;;;;57.15;19.20;;;;;;;-4.22;91.34;102501.19;6268469;22;20027;-68
2024/01/11 08:45:29;;;;;;;53.17;20.30;;;;;;;-3.97;90.84;102496.78;6268003;22;20019;-68
2024/01/11 08:47:56;;;;;;;59.10;20.30;;;;;;;-4.00;90.96;102494.13;6268090;22;20020;-68
2024/01/11 08:50:23;;;;;;;55.42;19.33;;;;;;;-4.01;90.63;102497.66;6268901;22;20406;-68
2024/01/11 08:52:55;;;;;;;56.80;21.27;;;;;;;-4.12;90.90;102496.78;6268958;22;20024;-68
2024/01/11 08:55:22;;;;;;;53.22;21.17;;;;;;;-4.10;91.28;102508.25;6268909;22;20065;-68
2024/01/11 08:57:49;;;;;;;52.25;19.95;;;;;;;-4.13;91.48;102492.38;6269575;22;20043;-68
2024/01/11 09:00:17;;;;;;;61.28;21.67;;;;;;;-3.97;91.38;102502.09;6269523;22;20016;-68
2024/01/11 09:02:49;;;;;;;52.70;19.33;;;;;;;-4.04;91.60;102500.31;6268366;22;20362;-68
2024/01/11 09:05:16;;;;;;;55.33;20.67;;;;;;;-4.00;91.25;102496.78;6268870;22;20041;-68
2024/01/11 09:07:43;;;;;;;55.88;20.25;;;;;;;-3.81;91.29;102481.75;6268537;22;20028;-68
2024/01/11 09:10:10;;;;;;;58.78;21.05;;;;;;;-3.85;91.30;102469.41;6269350;22;20039;-68
2024/01/11 09:12:38;;;;;;;58.08;21.23;;;;;;;-3.69;91.25;102464.97;6269202;22;20049;-68
2024/01/11 09:15:05;;;;;;;52.20;20.20;;;;;;;-3.57;90.48;102464.94;6269087;22;20024;-68
2024/01/11 09:17:32;;;;;;;60.20;20.75;;;;;;;-3.39;89.62;102461.38;6269030;22;20055;-68
2024/01/11 09:19:59;;;;;;;57.45;21.38;;;;;;;-3.33;89.10;102464.91;6268938;22;20024;-68
2024/01/11 09:22:26;;;;;;;65.25;22.50;;;;;;;-3.27;88.91;102452.47;6242730;22;20051;-69
2024/01/11 09:24:52;;;;;;;58.33;21.02;;;;;;;-3.24;88.41;102452.47;6268803;22;20078;-68
2024/01/11 09:27:19;;;;;;;55.20;20.98;;;;;;;-3.37;89.23;102463.13;6270292;22;20036;-68
2024/01/11 09:29:46;;;;;;;55.33;21.30;;;;;;;-3.24;88.87;102463.97;6269808;22;20045;-68
2024/01/11 09:32:13;;;;;;;51.63;20.33;;;;;;;-3.27;88.38;102479.91;6269274;22;20024;-69
2024/01/11 09:34:40;;;;;;;50.03;19.27;;;;;;;-3.29;88.69;102481.69;6268645;22;20031;-68
2024/01/11 09:37:06;;;;;;;62.50;23.92;;;;;;;-3.18;88.31;102486.94;6268370;22;20099;-68
2024/01/11 09:39:33;;;;;;;61.47;21.67;;;;;;;-3.19;88.31;102471.91;6268223;22;20058;-68
2024/01/11 09:42:08;;;;;;;50.75;19.73;;;;;;;-3.14;87.84;102472.75;6268975;22;20023;-68
2024/01/11 09:44:38;;;;;;;53.60;21.17;;;;;;;-3.27;88.66;102471.94;6269274;22;20451;-68
2024/01/11 09:47:10;;;;;;;65.65;20.60;;;;;;;-3.37;88.78;102468.44;6269203;22;20024;-68
2024/01/11 09:49:44;;;;;;;57.83;22.98;;;;;;;-3.34;88.79;102472.84;6269190;22;20450;-68
2024/01/11 09:52:14;;;;;;;56.17;21.95;;;;;;;-3.30;88.54;102478.16;6268602;22;20020;-68
2024/01/11 09:54:41;;;;;;;58.63;21.35;;;;;;;-3.17;88.22;102478.09;6268508;22;20106;-68
2024/01/11 09:57:09;;;;;;;58.58;21.95;;;;;;;-3.39;88.71;102470.22;6270315;22;20051;-68
2024/01/11 09:59:37;;;;;;;69.18;22.77;;;;;;;-3.39;89.35;102482.59;6270404;22;20043;-68
2024/01/11 10:02:07;;;;;;;80.07;30.40;;;;;;;-3.53;89.27;102498.50;6271359;22;20027;-68
2024/01/11 10:04:35;;;;;;;64.55;22.88;;;;;;;-3.48;89.77;102495.88;6271241;22;20030;-69
2024/01/11 10:07:06;;;;;;;65.72;22.05;;;;;;;-3.46;90.88;102499.41;6271272;22;20379;-68
2024/01/11 10:09:32;;;;;;;60.95;24.02;;;;;;;-3.44;89.75;102503.81;6271903;22;20099;-69
2024/01/11 10:11:59;;;;;;;60.60;23.58;;;;;;;-3.32;89.65;102487.88;6271721;22;20023;-68
2024/01/11 10:14:26;;;;;;;64.82;23.83;;;;;;;-3.35;88.59;102481.69;6270582;22;20450;-68
2024/01/11 10:16:54;;;;;;;77.05;28.13;;;;;;;-3.35;89.00;102487.88;6270987;22;20031;-68
2024/01/11 10:19:22;;;;;;;73.85;24.60;;;;;;;-3.46;88.55;102487.00;6270080;22;20349;-68
2024/01/11 10:21:49;;;;;;;58.28;24.52;;;;;;;-3.43;89.01;102487.00;6271836;22;20390;-68
2024/01/11 10:24:20;;;;;;;67.45;27.40;;;;;;;-3.38;89.39;102477.28;6271191;22;20086;-68
2024/01/11 10:26:47;;;;;;;;;;;;;;;-3.26;88.63;102481.66;6272379;22;20307;-68
2024/01/11 10:29:14;;;;;;;56.92;21.27;;;;;;;-3.35;88.30;102464.00;6271133;22;20298;-69
2024/01/11 10:31:40;;;;;;;71.50;24.63;;;;;;;-3.15;88.12;102457.72;6271223;22;20106;-69
2024/01/11 10:34:08;;;;;;;65.78;26.23;;;;;;;-3.31;87.93;102444.53;6271167;22;20485;-68
2024/01/11 10:36:36;;;;;;;67.20;25.67;;;;;;;-3.27;88.38;102441.88;6269650;22;20046;-68
2024/01/11 10:39:05;;;;;;;65.53;23.33;;;;;;;-3.27;88.33;102442.75;6241578;22;20035;-68
2024/01/11 10:41:40;;;;;;;59.85;22.77;;;;;;;-3.27;88.33;102452.47;6241657;22;20093;-68
2024/01/11 10:44:30;;;;;;;58.33;22.88;;;;;;;-3.20;87.91;102448.94;6238424;23;20023;-68
2024/01/11 10:46:58;;;;;;;60.22;23.00;;;;;;;-3.37;88.37;102446.31;6237239;23;20036;-68
2024/01/11 10:49:25;;;;;;;62.47;22.17;;;;;;;-3.34;88.66;102446.31;6237524;23;20478;-68
2024/01/11 10:52:00;;;;;;;63.42;25.30;;;;;;;-3.24;88.36;102452.47;6237258;23;20016;-69
2024/01/11 10:54:27;;;;;;;62.25;22.95;;;;;;;-3.22;89.16;102461.31;6237025;23;20059;-68
2024/01/11 10:57:02;;;;;;;64.40;23.90;;;;;;;-3.12;87.66;102468.38;6237913;23;20446;-69
2024/01/11 10:59:31;;;;;;;60.67;23.13;;;;;;;-2.95;87.34;102458.56;6237560;23;20450;-68
2024/01/11 11:02:06;;;;;;;61.28;22.88;;;;;;;-2.93;86.98;102459.44;6225943;23;20027;-68
2024/01/11 11:04:35;;;;;;;67.85;24.13;;;;;;;-3.00;87.44;102455.03;6236558;23;20024;-68
2024/01/11 11:07:02;;;;;;;68.63;24.05;;;;;;;-2.94;87.66;102455.03;6238519;23;20031;-68
2024/01/11 11:09:32;;;;;;;62.25;23.45;;;;;;;-2.97;87.72;102456.78;6236729;23;20461;-68
2024/01/11 11:11:59;;;;;;;68.72;24.55;;;;;;;-2.90;87.84;102447.91;6236873;23;20051;-68
2024/01/11 11:14:28;;;;;;;63.45;23.85;;;;;;;-3.07;88.17;102440.00;6236364;23;20024;-68